sensor_id;sensor_type;location;lat;lon;timestamp;temperature;humidity
20998;DHT22;10657;51.276;6.390;2022-09-23T00:01:01;12.20;99.90
20998;DHT22;10657;51.276;6.390;2022-09-23T00:03:29;12.20;99.90
20998;DHT22;10657;51.276;6.390;2022-09-23T00:06:02;12.00;99.90
20998;DHT22;10657;51.276;6.390;2022-09-23T00:08:29;11.90;99.90
20998;DHT22;10657;51.276;6.390;2022-09-23T00:10:56;11.80;99.90
20998;DHT22;10657;51.276;6.390;2022-09-23T00:13:24;11.80;99.90
20998;DHT22;10657;51.276;6.390;2022-09-23T00:15:51;11.60;99.90
20998;DHT22;10657;51.276;6.390;2022-09-23T00:18:17;11.60;99.90
20998;DHT22;10657;51.276;6.390;2022-09-23T00:20:46;11.50;99.90
20998;DHT22;10657;51.276;6.390;2022-09-23T00:23:13;11.50;99.90
20998;DHT22;10657;51.276;6.390;2022-09-23T00:25:40;11.70;99.90
20998;DHT22;10657;51.276;6.390;2022-09-23T00:28:06;11.90;99.90
20998;DHT22;10657;51.276;6.390;2022-09-23T00:30:33;12.00;99.90
20998;DHT22;10657;51.276;6.390;2022-09-23T00:33:00;11.90;99.90
20998;DHT22;10657;51.276;6.390;2022-09-23T00:35:27;11.80;99.90
20998;DHT22;10657;51.276;6.390;2022-09-23T00:37:53;12.00;99.90
20998;DHT22;10657;51.276;6.390;2022-09-23T00:40:20;11.80;99.90
20998;DHT22;10657;51.276;6.390;2022-09-23T00:42:48;11.80;99.90
20998;DHT22;10657;51.276;6.390;2022-09-23T00:45:17;11.70;99.90
20998;DHT22;10657;51.276;6.390;2022-09-23T00:47:50;11.70;99.90
20998;DHT22;10657;51.276;6.390;2022-09-23T00:52:58;11.80;99.90
20998;DHT22;10657;51.276;6.390;2022-09-23T00:55:29;11.80;99.90
20998;DHT22;10657;51.276;6.390;2022-09-23T00:58:00;11.80;99.90
20998;DHT22;10657;51.276;6.390;2022-09-23T01:00:28;11.70;99.90
20998;DHT22;10657;51.276;6.390;2022-09-23T01:02:54;11.80;99.90
20998;DHT22;10657;51.276;6.390;2022-09-23T01:05:21;11.70;99.90
20998;DHT22;10657;51.276;6.390;2022-09-23T01:07:49;11.90;99.90
20998;DHT22;10657;51.276;6.390;2022-09-23T01:10:16;11.90;99.90
20998;DHT22;10657;51.276;6.390;2022-09-23T01:15:16;11.70;99.90
20998;DHT22;10657;51.276;6.390;2022-09-23T01:18:00;11.70;99.90
20998;DHT22;10657;51.276;6.390;2022-09-23T01:20:40;11.70;99.90
20998;DHT22;10657;51.276;6.390;2022-09-23T01:37:03;11.60;99.90
20998;DHT22;10657;51.276;6.390;2022-09-23T01:39:57;11.50;99.90
20998;DHT22;10657;51.276;6.390;2022-09-23T01:42:37;11.40;99.90
20998;DHT22;10657;51.276;6.390;2022-09-23T01:47:47;11.40;99.90
20998;DHT22;10657;51.276;6.390;2022-09-23T01:50:18;11.40;99.90
20998;DHT22;10657;51.276;6.390;2022-09-23T01:53:10;11.30;99.90
20998;DHT22;10657;51.276;6.390;2022-09-23T01:55:41;11.30;99.90
20998;DHT22;10657;51.276;6.390;2022-09-23T01:58:13;11.30;99.90
20998;DHT22;10657;51.276;6.390;2022-09-23T02:00:48;11.30;99.90
20998;DHT22;10657;51.276;6.390;2022-09-23T02:03:20;11.30;99.90
20998;DHT22;10657;51.276;6.390;2022-09-23T02:06:40;11.40;99.90
20998;DHT22;10657;51.276;6.390;2022-09-23T02:08:53;11.30;99.90
20998;DHT22;10657;51.276;6.390;2022-09-23T02:11:23;11.30;99.90
20998;DHT22;10657;51.276;6.390;2022-09-23T02:13:57;11.30;99.90
20998;DHT22;10657;51.276;6.390;2022-09-23T02:16:36;11.20;99.90
20998;DHT22;10657;51.276;6.390;2022-09-23T02:22:11;11.20;99.90
20998;DHT22;10657;51.276;6.390;2022-09-23T02:24:40;11.30;99.90
20998;DHT22;10657;51.276;6.390;2022-09-23T02:27:29;11.20;99.90
20998;DHT22;10657;51.276;6.390;2022-09-23T02:30:09;11.20;99.90
20998;DHT22;10657;51.276;6.390;2022-09-23T02:33:03;11.20;99.90
20998;DHT22;10657;51.276;6.390;2022-09-23T02:35:34;11.10;99.90
20998;DHT22;10657;51.276;6.390;2022-09-23T02:38:27;11.10;99.90
20998;DHT22;10657;51.276;6.390;2022-09-23T02:41:19;11.10;99.90
20998;DHT22;10657;51.276;6.390;2022-09-23T02:46:25;11.00;99.90
20998;DHT22;10657;51.276;6.390;2022-09-23T02:49:26;10.90;99.90
20998;DHT22;10657;51.276;6.390;2022-09-23T02:51:55;10.90;99.90
20998;DHT22;10657;51.276;6.390;2022-09-23T02:54:27;10.90;99.90
20998;DHT22;10657;51.276;6.390;2022-09-23T02:57:02;11.00;99.90
20998;DHT22;10657;51.276;6.390;2022-09-23T03:00:05;10.90;99.90
20998;DHT22;10657;51.276;6.390;2022-09-23T03:03:19;11.00;99.90
20998;DHT22;10657;51.276;6.390;2022-09-23T03:05:43;10.90;99.90
20998;DHT22;10657;51.276;6.390;2022-09-23T03:08:19;10.80;99.90
20998;DHT22;10657;51.276;6.390;2022-09-23T03:11:08;10.80;99.90
20998;DHT22;10657;51.276;6.390;2022-09-23T03:24:19;10.70;99.90
20998;DHT22;10657;51.276;6.390;2022-09-23T03:26:47;10.70;99.90
20998;DHT22;10657;51.276;6.390;2022-09-23T03:29:16;10.70;99.90
20998;DHT22;10657;51.276;6.390;2022-09-23T03:31:44;10.70;99.90
20998;DHT22;10657;51.276;6.390;2022-09-23T03:34:21;10.70;99.90
20998;DHT22;10657;51.276;6.390;2022-09-23T03:37:00;10.70;99.90
20998;DHT22;10657;51.276;6.390;2022-09-23T03:42:26;10.60;99.90
20998;DHT22;10657;51.276;6.390;2022-09-23T03:44:56;10.70;99.90
20998;DHT22;10657;51.276;6.390;2022-09-23T03:47:25;10.80;99.90
20998;DHT22;10657;51.276;6.390;2022-09-23T03:49:52;10.60;99.90
20998;DHT22;10657;51.276;6.390;2022-09-23T03:52:21;10.60;99.90
20998;DHT22;10657;51.276;6.390;2022-09-23T03:54:48;10.40;99.90
20998;DHT22;10657;51.276;6.390;2022-09-23T03:57:17;10.50;99.90
20998;DHT22;10657;51.276;6.390;2022-09-23T03:59:44;10.40;99.90
20998;DHT22;10657;51.276;6.390;2022-09-23T04:02:10;10.30;99.90
20998;DHT22;10657;51.276;6.390;2022-09-23T04:04:38;10.30;99.90
20998;DHT22;10657;51.276;6.390;2022-09-23T04:07:06;10.30;99.90
20998;DHT22;10657;51.276;6.390;2022-09-23T04:09:34;10.40;99.90
20998;DHT22;10657;51.276;6.390;2022-09-23T04:12:01;10.40;99.90
20998;DHT22;10657;51.276;6.390;2022-09-23T04:14:29;10.30;99.90
20998;DHT22;10657;51.276;6.390;2022-09-23T04:16:55;10.40;99.90
20998;DHT22;10657;51.276;6.390;2022-09-23T04:19:22;10.40;99.90
20998;DHT22;10657;51.276;6.390;2022-09-23T04:25:57;10.40;99.90
20998;DHT22;10657;51.276;6.390;2022-09-23T04:28:24;10.40;99.90
20998;DHT22;10657;51.276;6.390;2022-09-23T04:30:50;10.30;99.90
20998;DHT22;10657;51.276;6.390;2022-09-23T04:33:17;10.30;99.90
20998;DHT22;10657;51.276;6.390;2022-09-23T04:35:51;10.10;99.90
20998;DHT22;10657;51.276;6.390;2022-09-23T04:38:18;10.10;99.90
20998;DHT22;10657;51.276;6.390;2022-09-23T04:40:45;10.10;99.90
20998;DHT22;10657;51.276;6.390;2022-09-23T04:43:12;10.20;99.90
20998;DHT22;10657;51.276;6.390;2022-09-23T04:45:41;10.20;99.90
20998;DHT22;10657;51.276;6.390;2022-09-23T04:48:09;10.30;99.90
20998;DHT22;10657;51.276;6.390;2022-09-23T04:50:37;10.30;99.90
20998;DHT22;10657;51.276;6.390;2022-09-23T04:53:04;10.30;99.90
20998;DHT22;10657;51.276;6.390;2022-09-23T04:55:31;10.30;99.90
20998;DHT22;10657;51.276;6.390;2022-09-23T04:57:58;10.20;99.90
20998;DHT22;10657;51.276;6.390;2022-09-23T05:00:25;10.30;99.90
20998;DHT22;10657;51.276;6.390;2022-09-23T05:02:52;10.20;99.90
20998;DHT22;10657;51.276;6.390;2022-09-23T05:05:19;10.20;99.90
20998;DHT22;10657;51.276;6.390;2022-09-23T05:07:47;10.10;99.90
20998;DHT22;10657;51.276;6.390;2022-09-23T05:10:14;10.10;99.90
20998;DHT22;10657;51.276;6.390;2022-09-23T05:12:41;10.10;99.90
20998;DHT22;10657;51.276;6.390;2022-09-23T05:15:08;10.10;99.90
20998;DHT22;10657;51.276;6.390;2022-09-23T05:17:38;10.20;99.90
20998;DHT22;10657;51.276;6.390;2022-09-23T05:20:05;10.10;99.90
20998;DHT22;10657;51.276;6.390;2022-09-23T05:22:32;10.10;99.90
20998;DHT22;10657;51.276;6.390;2022-09-23T05:24:59;10.10;99.90
20998;DHT22;10657;51.276;6.390;2022-09-23T05:27:27;10.20;99.90
20998;DHT22;10657;51.276;6.390;2022-09-23T05:29:54;10.00;99.90
20998;DHT22;10657;51.276;6.390;2022-09-23T05:32:21;10.00;99.90
20998;DHT22;10657;51.276;6.390;2022-09-23T05:34:47;10.00;99.90
20998;DHT22;10657;51.276;6.390;2022-09-23T05:37:14;10.10;99.90
20998;DHT22;10657;51.276;6.390;2022-09-23T05:39:41;10.10;99.90
20998;DHT22;10657;51.276;6.390;2022-09-23T05:42:07;10.00;99.90
20998;DHT22;10657;51.276;6.390;2022-09-23T05:44:37;10.00;99.90
20998;DHT22;10657;51.276;6.390;2022-09-23T05:47:04;10.00;99.90
20998;DHT22;10657;51.276;6.390;2022-09-23T05:49:31;10.10;99.90
20998;DHT22;10657;51.276;6.390;2022-09-23T05:52:18;10.00;99.90
20998;DHT22;10657;51.276;6.390;2022-09-23T05:54:45;10.00;99.90
20998;DHT22;10657;51.276;6.390;2022-09-23T05:57:11;10.10;99.90
20998;DHT22;10657;51.276;6.390;2022-09-23T05:59:38;10.10;99.90
20998;DHT22;10657;51.276;6.390;2022-09-23T06:02:05;10.10;99.90
20998;DHT22;10657;51.276;6.390;2022-09-23T06:04:32;10.10;99.90
20998;DHT22;10657;51.276;6.390;2022-09-23T06:06:58;10.20;99.90
20998;DHT22;10657;51.276;6.390;2022-09-23T06:09:29;10.20;99.90
20998;DHT22;10657;51.276;6.390;2022-09-23T06:12:02;10.30;99.90
20998;DHT22;10657;51.276;6.390;2022-09-23T06:14:29;10.30;99.90
20998;DHT22;10657;51.276;6.390;2022-09-23T06:16:56;10.30;99.90
20998;DHT22;10657;51.276;6.390;2022-09-23T06:19:22;10.50;99.90
20998;DHT22;10657;51.276;6.390;2022-09-23T06:21:49;10.50;99.90
20998;DHT22;10657;51.276;6.390;2022-09-23T06:24:15;10.50;99.90
20998;DHT22;10657;51.276;6.390;2022-09-23T06:26:48;10.50;99.90
20998;DHT22;10657;51.276;6.390;2022-09-23T06:29:15;10.70;99.90
20998;DHT22;10657;51.276;6.390;2022-09-23T06:31:43;10.80;99.90
20998;DHT22;10657;51.276;6.390;2022-09-23T06:34:12;10.70;99.90
20998;DHT22;10657;51.276;6.390;2022-09-23T06:36:42;10.90;99.90
20998;DHT22;10657;51.276;6.390;2022-09-23T06:39:15;11.00;99.90
20998;DHT22;10657;51.276;6.390;2022-09-23T06:41:42;11.00;99.90
20998;DHT22;10657;51.276;6.390;2022-09-23T06:44:09;11.00;99.90
20998;DHT22;10657;51.276;6.390;2022-09-23T06:46:36;11.10;99.90
20998;DHT22;10657;51.276;6.390;2022-09-23T06:49:03;11.20;99.90
20998;DHT22;10657;51.276;6.390;2022-09-23T06:51:29;11.20;99.90
20998;DHT22;10657;51.276;6.390;2022-09-23T06:53:56;11.30;99.90
20998;DHT22;10657;51.276;6.390;2022-09-23T06:56:23;11.40;99.90
20998;DHT22;10657;51.276;6.390;2022-09-23T06:58:53;11.50;99.90
20998;DHT22;10657;51.276;6.390;2022-09-23T07:01:20;11.50;99.90
20998;DHT22;10657;51.276;6.390;2022-09-23T07:03:47;11.50;99.90
20998;DHT22;10657;51.276;6.390;2022-09-23T07:06:14;11.50;99.90
20998;DHT22;10657;51.276;6.390;2022-09-23T07:08:43;11.50;99.90
20998;DHT22;10657;51.276;6.390;2022-09-23T07:11:10;11.40;99.90
20998;DHT22;10657;51.276;6.390;2022-09-23T07:13:39;11.60;99.90
20998;DHT22;10657;51.276;6.390;2022-09-23T07:16:08;11.50;99.90
20998;DHT22;10657;51.276;6.390;2022-09-23T07:18:35;11.70;99.90
20998;DHT22;10657;51.276;6.390;2022-09-23T07:21:11;11.80;99.90
20998;DHT22;10657;51.276;6.390;2022-09-23T07:23:47;11.80;99.90
20998;DHT22;10657;51.276;6.390;2022-09-23T07:26:16;11.90;99.90
20998;DHT22;10657;51.276;6.390;2022-09-23T07:28:43;12.00;99.90
20998;DHT22;10657;51.276;6.390;2022-09-23T07:31:13;11.90;99.90
20998;DHT22;10657;51.276;6.390;2022-09-23T07:33:40;12.00;99.90
20998;DHT22;10657;51.276;6.390;2022-09-23T07:36:14;12.10;99.90
20998;DHT22;10657;51.276;6.390;2022-09-23T07:38:43;12.10;99.90
20998;DHT22;10657;51.276;6.390;2022-09-23T07:41:13;12.00;99.90
20998;DHT22;10657;51.276;6.390;2022-09-23T07:43:40;12.00;99.90
20998;DHT22;10657;51.276;6.390;2022-09-23T07:46:10;12.10;99.90
20998;DHT22;10657;51.276;6.390;2022-09-23T07:48:37;12.20;99.90
20998;DHT22;10657;51.276;6.390;2022-09-23T07:51:20;12.30;99.90
20998;DHT22;10657;51.276;6.390;2022-09-23T07:53:48;12.40;99.90
20998;DHT22;10657;51.276;6.390;2022-09-23T07:56:17;12.40;99.90
20998;DHT22;10657;51.276;6.390;2022-09-23T07:58:47;12.50;99.90
20998;DHT22;10657;51.276;6.390;2022-09-23T08:01:27;12.50;99.90
20998;DHT22;10657;51.276;6.390;2022-09-23T08:03:56;12.70;99.90
20998;DHT22;10657;51.276;6.390;2022-09-23T08:06:23;12.70;99.90
20998;DHT22;10657;51.276;6.390;2022-09-23T08:08:50;12.80;99.90
20998;DHT22;10657;51.276;6.390;2022-09-23T08:11:19;12.80;99.90
20998;DHT22;10657;51.276;6.390;2022-09-23T08:13:45;12.90;99.90
20998;DHT22;10657;51.276;6.390;2022-09-23T08:16:13;12.80;99.90
20998;DHT22;10657;51.276;6.390;2022-09-23T08:18:42;12.80;99.90
20998;DHT22;10657;51.276;6.390;2022-09-23T08:21:10;12.90;99.90
20998;DHT22;10657;51.276;6.390;2022-09-23T08:23:36;12.90;99.90
20998;DHT22;10657;51.276;6.390;2022-09-23T08:26:05;12.90;99.90
20998;DHT22;10657;51.276;6.390;2022-09-23T08:28:39;13.00;99.90
20998;DHT22;10657;51.276;6.390;2022-09-23T08:31:06;13.10;99.90
20998;DHT22;10657;51.276;6.390;2022-09-23T08:33:33;13.10;99.90
20998;DHT22;10657;51.276;6.390;2022-09-23T08:36:01;13.10;99.90
20998;DHT22;10657;51.276;6.390;2022-09-23T08:38:28;13.10;99.90
20998;DHT22;10657;51.276;6.390;2022-09-23T08:43:53;13.30;99.90
20998;DHT22;10657;51.276;6.390;2022-09-23T08:46:26;13.40;99.90
20998;DHT22;10657;51.276;6.390;2022-09-23T08:48:54;13.50;99.90
20998;DHT22;10657;51.276;6.390;2022-09-23T08:51:34;13.50;99.90
20998;DHT22;10657;51.276;6.390;2022-09-23T08:54:01;13.70;99.90
20998;DHT22;10657;51.276;6.390;2022-09-23T08:56:28;13.80;99.90
20998;DHT22;10657;51.276;6.390;2022-09-23T09:01:51;14.00;99.90
20998;DHT22;10657;51.276;6.390;2022-09-23T09:09:59;14.40;99.90
20998;DHT22;10657;51.276;6.390;2022-09-23T09:12:42;14.40;99.90
20998;DHT22;10657;51.276;6.390;2022-09-23T09:15:11;14.50;99.90
20998;DHT22;10657;51.276;6.390;2022-09-23T09:18:06;14.50;99.90
20998;DHT22;10657;51.276;6.390;2022-09-23T09:20:40;14.70;99.90
20998;DHT22;10657;51.276;6.390;2022-09-23T09:25:48;14.90;99.90
20998;DHT22;10657;51.276;6.390;2022-09-23T09:28:25;15.00;99.90
20998;DHT22;10657;51.276;6.390;2022-09-23T09:30:59;15.10;99.90
20998;DHT22;10657;51.276;6.390;2022-09-23T09:33:34;15.30;99.90
20998;DHT22;10657;51.276;6.390;2022-09-23T09:38:35;15.30;99.90
20998;DHT22;10657;51.276;6.390;2022-09-23T09:41:14;15.30;99.90
20998;DHT22;10657;51.276;6.390;2022-09-23T09:43:43;15.50;99.90
20998;DHT22;10657;51.276;6.390;2022-09-23T09:49:23;15.60;99.90
20998;DHT22;10657;51.276;6.390;2022-09-23T09:54:49;15.70;99.90
20998;DHT22;10657;51.276;6.390;2022-09-23T10:02:53;15.50;99.90
20998;DHT22;10657;51.276;6.390;2022-09-23T10:07:54;15.70;99.90
20998;DHT22;10657;51.276;6.390;2022-09-23T10:10:23;15.70;99.90
20998;DHT22;10657;51.276;6.390;2022-09-23T10:13:13;15.80;99.90
20998;DHT22;10657;51.276;6.390;2022-09-23T10:15:42;15.90;99.90
20998;DHT22;10657;51.276;6.390;2022-09-23T10:18:18;15.90;99.90
20998;DHT22;10657;51.276;6.390;2022-09-23T10:20:45;16.00;99.90
20998;DHT22;10657;51.276;6.390;2022-09-23T10:23:16;16.00;99.90
20998;DHT22;10657;51.276;6.390;2022-09-23T10:26:05;16.10;99.90
20998;DHT22;10657;51.276;6.390;2022-09-23T10:28:46;16.10;99.90
20998;DHT22;10657;51.276;6.390;2022-09-23T10:31:20;16.20;99.90
20998;DHT22;10657;51.276;6.390;2022-09-23T10:33:53;16.30;99.90
20998;DHT22;10657;51.276;6.390;2022-09-23T10:36:21;16.20;99.90
20998;DHT22;10657;51.276;6.390;2022-09-23T10:39:04;16.30;99.90
20998;DHT22;10657;51.276;6.390;2022-09-23T10:41:57;16.50;99.90
20998;DHT22;10657;51.276;6.390;2022-09-23T10:45:04;16.40;99.90
20998;DHT22;10657;51.276;6.390;2022-09-23T10:48:31;16.60;99.90
20998;DHT22;10657;51.276;6.390;2022-09-23T10:50:54;16.70;99.90
20998;DHT22;10657;51.276;6.390;2022-09-23T11:04:10;17.10;99.90
20998;DHT22;10657;51.276;6.390;2022-09-23T11:15:38;17.40;99.90
20998;DHT22;10657;51.276;6.390;2022-09-23T11:18:00;17.50;99.90
20998;DHT22;10657;51.276;6.390;2022-09-23T11:34:49;18.20;99.90
20998;DHT22;10657;51.276;6.390;2022-09-23T11:37:24;18.10;99.90
20998;DHT22;10657;51.276;6.390;2022-09-23T11:40:31;18.30;99.90
20998;DHT22;10657;51.276;6.390;2022-09-23T11:45:43;18.40;99.90
20998;DHT22;10657;51.276;6.390;2022-09-23T11:48:16;18.40;99.90
20998;DHT22;10657;51.276;6.390;2022-09-23T11:50:52;18.40;99.90
20998;DHT22;10657;51.276;6.390;2022-09-23T11:53:44;18.60;99.90
20998;DHT22;10657;51.276;6.390;2022-09-23T11:59:09;18.70;99.90
20998;DHT22;10657;51.276;6.390;2022-09-23T12:01:51;18.60;99.90
20998;DHT22;10657;51.276;6.390;2022-09-23T12:04:30;18.70;99.90
20998;DHT22;10657;51.276;6.390;2022-09-23T12:10:04;18.70;99.90
20998;DHT22;10657;51.276;6.390;2022-09-23T12:12:40;18.60;99.90
20998;DHT22;10657;51.276;6.390;2022-09-23T12:18:08;18.30;99.90
20998;DHT22;10657;51.276;6.390;2022-09-23T12:20:58;18.30;99.90
20998;DHT22;10657;51.276;6.390;2022-09-23T12:25:59;18.20;99.90
20998;DHT22;10657;51.276;6.390;2022-09-23T12:28:28;18.30;99.90
20998;DHT22;10657;51.276;6.390;2022-09-23T12:30:59;18.30;99.90
20998;DHT22;10657;51.276;6.390;2022-09-23T12:33:29;18.30;99.90
20998;DHT22;10657;51.276;6.390;2022-09-23T12:36:07;18.40;99.90
20998;DHT22;10657;51.276;6.390;2022-09-23T12:38:49;18.50;99.90
20998;DHT22;10657;51.276;6.390;2022-09-23T12:41:27;18.40;99.90
20998;DHT22;10657;51.276;6.390;2022-09-23T12:46:45;18.60;99.90
20998;DHT22;10657;51.276;6.390;2022-09-23T12:54:44;18.50;99.90
20998;DHT22;10657;51.276;6.390;2022-09-23T13:02:35;18.30;99.90
20998;DHT22;10657;51.276;6.390;2022-09-23T13:05:20;18.30;99.90
20998;DHT22;10657;51.276;6.390;2022-09-23T13:08:15;18.30;99.90
20998;DHT22;10657;51.276;6.390;2022-09-23T13:10:46;18.20;99.90
20998;DHT22;10657;51.276;6.390;2022-09-23T13:13:26;18.30;99.90
20998;DHT22;10657;51.276;6.390;2022-09-23T13:19:05;18.30;99.90
20998;DHT22;10657;51.276;6.390;2022-09-23T13:29:30;18.50;99.90
20998;DHT22;10657;51.276;6.390;2022-09-23T13:32:01;18.50;99.90
20998;DHT22;10657;51.276;6.390;2022-09-23T13:34:32;18.30;99.90
20998;DHT22;10657;51.276;6.390;2022-09-23T13:37:18;18.30;99.90
20998;DHT22;10657;51.276;6.390;2022-09-23T13:39:48;18.40;99.90
20998;DHT22;10657;51.276;6.390;2022-09-23T13:42:26;18.60;99.90
20998;DHT22;10657;51.276;6.390;2022-09-23T13:44:55;18.60;99.90
20998;DHT22;10657;51.276;6.390;2022-09-23T13:47:26;18.60;99.90
20998;DHT22;10657;51.276;6.390;2022-09-23T13:49:54;18.70;99.90
20998;DHT22;10657;51.276;6.390;2022-09-23T13:52:25;18.80;99.90
20998;DHT22;10657;51.276;6.390;2022-09-23T13:54:52;18.70;99.90
20998;DHT22;10657;51.276;6.390;2022-09-23T13:57:31;18.70;99.90
20998;DHT22;10657;51.276;6.390;2022-09-23T14:00:18;18.60;99.90
20998;DHT22;10657;51.276;6.390;2022-09-23T14:02:46;18.60;99.90
20998;DHT22;10657;51.276;6.390;2022-09-23T14:05:21;18.70;99.90
20998;DHT22;10657;51.276;6.390;2022-09-23T14:07:49;18.70;99.90
20998;DHT22;10657;51.276;6.390;2022-09-23T14:10:22;18.70;99.90
20998;DHT22;10657;51.276;6.390;2022-09-23T14:12:51;18.50;99.90
20998;DHT22;10657;51.276;6.390;2022-09-23T14:15:19;18.50;99.90
20998;DHT22;10657;51.276;6.390;2022-09-23T14:17:49;18.40;99.90
20998;DHT22;10657;51.276;6.390;2022-09-23T14:20:18;18.30;99.90
20998;DHT22;10657;51.276;6.390;2022-09-23T14:22:45;18.40;99.90
20998;DHT22;10657;51.276;6.390;2022-09-23T14:25:14;18.40;99.90
20998;DHT22;10657;51.276;6.390;2022-09-23T14:27:41;18.30;99.90
20998;DHT22;10657;51.276;6.390;2022-09-23T14:30:18;18.30;99.90
20998;DHT22;10657;51.276;6.390;2022-09-23T14:32:45;18.30;99.90
20998;DHT22;10657;51.276;6.390;2022-09-23T14:35:17;18.30;99.90
20998;DHT22;10657;51.276;6.390;2022-09-23T14:37:45;18.20;99.90
20998;DHT22;10657;51.276;6.390;2022-09-23T14:40:32;18.20;99.90
20998;DHT22;10657;51.276;6.390;2022-09-23T14:45:53;18.00;99.90
20998;DHT22;10657;51.276;6.390;2022-09-23T14:48:32;18.00;99.90
20998;DHT22;10657;51.276;6.390;2022-09-23T14:51:01;18.00;99.90
20998;DHT22;10657;51.276;6.390;2022-09-23T14:53:40;18.00;99.90
20998;DHT22;10657;51.276;6.390;2022-09-23T14:56:12;18.00;99.90
20998;DHT22;10657;51.276;6.390;2022-09-23T14:58:42;18.00;99.90
20998;DHT22;10657;51.276;6.390;2022-09-23T15:01:25;17.90;99.90
20998;DHT22;10657;51.276;6.390;2022-09-23T15:03:54;17.90;99.90
20998;DHT22;10657;51.276;6.390;2022-09-23T15:06:22;17.90;99.90
20998;DHT22;10657;51.276;6.390;2022-09-23T15:08:50;17.90;99.90
20998;DHT22;10657;51.276;6.390;2022-09-23T15:11:19;17.90;99.90
20998;DHT22;10657;51.276;6.390;2022-09-23T15:13:48;18.00;99.90
20998;DHT22;10657;51.276;6.390;2022-09-23T15:16:25;17.80;99.90
20998;DHT22;10657;51.276;6.390;2022-09-23T15:18:55;17.80;99.90
20998;DHT22;10657;51.276;6.390;2022-09-23T15:21:23;17.80;99.90
20998;DHT22;10657;51.276;6.390;2022-09-23T15:23:53;17.80;99.90
20998;DHT22;10657;51.276;6.390;2022-09-23T15:26:22;17.90;99.90
20998;DHT22;10657;51.276;6.390;2022-09-23T15:28:51;17.80;99.90
20998;DHT22;10657;51.276;6.390;2022-09-23T15:31:20;17.70;99.90
20998;DHT22;10657;51.276;6.390;2022-09-23T15:33:49;17.70;99.90
20998;DHT22;10657;51.276;6.390;2022-09-23T15:36:22;17.70;99.90
20998;DHT22;10657;51.276;6.390;2022-09-23T15:38:51;17.60;99.90
20998;DHT22;10657;51.276;6.390;2022-09-23T15:41:18;17.60;99.90
20998;DHT22;10657;51.276;6.390;2022-09-23T15:43:45;17.60;99.90
20998;DHT22;10657;51.276;6.390;2022-09-23T15:46:24;17.60;99.90
20998;DHT22;10657;51.276;6.390;2022-09-23T15:49:07;17.60;99.90
20998;DHT22;10657;51.276;6.390;2022-09-23T15:51:35;17.70;99.90
20998;DHT22;10657;51.276;6.390;2022-09-23T15:54:08;17.60;99.90
20998;DHT22;10657;51.276;6.390;2022-09-23T15:56:37;17.60;99.90
20998;DHT22;10657;51.276;6.390;2022-09-23T15:59:03;17.50;99.90
20998;DHT22;10657;51.276;6.390;2022-09-23T16:01:33;17.40;99.90
20998;DHT22;10657;51.276;6.390;2022-09-23T16:04:02;17.50;99.90
20998;DHT22;10657;51.276;6.390;2022-09-23T16:06:30;17.50;99.90
20998;DHT22;10657;51.276;6.390;2022-09-23T16:08:57;17.50;99.90
20998;DHT22;10657;51.276;6.390;2022-09-23T16:11:26;17.50;99.90
20998;DHT22;10657;51.276;6.390;2022-09-23T16:13:55;17.50;99.90
20998;DHT22;10657;51.276;6.390;2022-09-23T16:16:22;17.50;99.90
20998;DHT22;10657;51.276;6.390;2022-09-23T16:18:49;17.40;99.90
20998;DHT22;10657;51.276;6.390;2022-09-23T16:21:24;17.40;99.90
20998;DHT22;10657;51.276;6.390;2022-09-23T16:23:51;17.30;99.90
20998;DHT22;10657;51.276;6.390;2022-09-23T16:26:22;17.30;99.90
20998;DHT22;10657;51.276;6.390;2022-09-23T16:28:54;17.30;99.90
20998;DHT22;10657;51.276;6.390;2022-09-23T16:31:22;17.30;99.90
20998;DHT22;10657;51.276;6.390;2022-09-23T16:33:52;17.20;99.90
20998;DHT22;10657;51.276;6.390;2022-09-23T16:36:37;17.20;99.90
20998;DHT22;10657;51.276;6.390;2022-09-23T16:39:07;17.20;99.90
20998;DHT22;10657;51.276;6.390;2022-09-23T16:41:35;17.20;99.90
20998;DHT22;10657;51.276;6.390;2022-09-23T16:44:04;17.20;99.90
20998;DHT22;10657;51.276;6.390;2022-09-23T16:46:32;17.20;99.90
20998;DHT22;10657;51.276;6.390;2022-09-23T16:48:59;17.20;99.90
20998;DHT22;10657;51.276;6.390;2022-09-23T16:51:31;17.10;99.90
20998;DHT22;10657;51.276;6.390;2022-09-23T16:54:09;17.00;99.90
20998;DHT22;10657;51.276;6.390;2022-09-23T16:56:38;17.00;99.90
20998;DHT22;10657;51.276;6.390;2022-09-23T16:59:11;17.00;99.90
20998;DHT22;10657;51.276;6.390;2022-09-23T17:01:38;17.00;99.90
20998;DHT22;10657;51.276;6.390;2022-09-23T17:04:23;17.00;99.90
20998;DHT22;10657;51.276;6.390;2022-09-23T17:06:51;16.90;99.90
20998;DHT22;10657;51.276;6.390;2022-09-23T17:09:19;17.00;99.90
20998;DHT22;10657;51.276;6.390;2022-09-23T17:14:29;16.90;99.90
20998;DHT22;10657;51.276;6.390;2022-09-23T17:16:57;16.90;99.90
20998;DHT22;10657;51.276;6.390;2022-09-23T17:19:24;16.90;99.90
20998;DHT22;10657;51.276;6.390;2022-09-23T17:21:52;16.80;99.90
20998;DHT22;10657;51.276;6.390;2022-09-23T17:24:18;16.80;99.90
20998;DHT22;10657;51.276;6.390;2022-09-23T17:26:45;16.70;99.90
20998;DHT22;10657;51.276;6.390;2022-09-23T17:29:17;16.70;99.90
20998;DHT22;10657;51.276;6.390;2022-09-23T17:31:44;16.60;99.90
20998;DHT22;10657;51.276;6.390;2022-09-23T17:34:12;16.60;99.90
20998;DHT22;10657;51.276;6.390;2022-09-23T17:36:38;16.50;99.90
20998;DHT22;10657;51.276;6.390;2022-09-23T17:39:05;16.60;99.90
20998;DHT22;10657;51.276;6.390;2022-09-23T17:41:32;16.60;99.90
20998;DHT22;10657;51.276;6.390;2022-09-23T17:43:59;16.50;99.90
20998;DHT22;10657;51.276;6.390;2022-09-23T17:46:26;16.50;99.90
20998;DHT22;10657;51.276;6.390;2022-09-23T17:48:56;16.50;99.90
20998;DHT22;10657;51.276;6.390;2022-09-23T17:51:23;16.50;99.90
20998;DHT22;10657;51.276;6.390;2022-09-23T17:53:51;16.50;99.90
20998;DHT22;10657;51.276;6.390;2022-09-23T17:56:25;16.40;99.90
20998;DHT22;10657;51.276;6.390;2022-09-23T17:58:52;16.40;99.90
20998;DHT22;10657;51.276;6.390;2022-09-23T18:01:22;16.30;99.90
20998;DHT22;10657;51.276;6.390;2022-09-23T18:03:56;16.30;99.90
20998;DHT22;10657;51.276;6.390;2022-09-23T18:06:26;16.30;99.90
20998;DHT22;10657;51.276;6.390;2022-09-23T18:08:53;16.30;99.90
20998;DHT22;10657;51.276;6.390;2022-09-23T18:11:29;16.30;99.90
20998;DHT22;10657;51.276;6.390;2022-09-23T18:13:58;16.30;99.90
20998;DHT22;10657;51.276;6.390;2022-09-23T18:16:27;16.20;99.90
20998;DHT22;10657;51.276;6.390;2022-09-23T18:18:59;16.10;99.90
20998;DHT22;10657;51.276;6.390;2022-09-23T18:21:33;16.00;99.90
20998;DHT22;10657;51.276;6.390;2022-09-23T18:24:01;15.80;99.90
20998;DHT22;10657;51.276;6.390;2022-09-23T18:26:48;15.70;99.90
20998;DHT22;10657;51.276;6.390;2022-09-23T18:29:15;15.70;99.90
20998;DHT22;10657;51.276;6.390;2022-09-23T18:31:42;15.50;99.90